sensor_id;sensor_type;location;lat;lon;timestamp;pressure;altitude;pressure_sealevel;temperature;humidity
58295;BME280;45705;55.592;37.460;2023-02-28T00:01:22;99617.72;;;-7.47;100.00
58295;BME280;45705;55.592;37.460;2023-02-28T00:03:49;99608.22;;;-7.57;100.00
58295;BME280;45705;55.592;37.460;2023-02-28T00:06:15;99602.88;;;-7.19;100.00
58295;BME280;45705;55.592;37.460;2023-02-28T00:08:41;99608.28;;;-7.65;100.00
58295;BME280;45705;55.592;37.460;2023-02-28T00:11:12;99597.94;;;-7.52;100.00
58295;BME280;45705;55.592;37.460;2023-02-28T00:13:41;99589.81;;;-7.65;100.00
58295;BME280;45705;55.592;37.460;2023-02-28T00:16:11;99594.78;;;-7.85;100.00
58295;BME280;45705;55.592;37.460;2023-02-28T00:18:38;99592.06;;;-7.77;100.00
58295;BME280;45705;55.592;37.460;2023-02-28T00:21:05;99589.28;;;-7.45;100.00
58295;BME280;45705;55.592;37.460;2023-02-28T00:23:30;99591.28;;;-7.47;100.00
58295;BME280;45705;55.592;37.460;2023-02-28T00:25:56;99587.03;;;-7.86;100.00
58295;BME280;45705;55.592;37.460;2023-02-28T00:28:22;99589.63;;;-7.48;100.00
58295;BME280;45705;55.592;37.460;2023-02-28T00:30:48;99580.94;;;-7.87;100.00
58295;BME280;45705;55.592;37.460;2023-02-28T00:33:14;99569.44;;;-7.94;100.00
58295;BME280;45705;55.592;37.460;2023-02-28T00:35:39;99577.59;;;-7.66;100.00
58295;BME280;45705;55.592;37.460;2023-02-28T00:38:08;99570.50;;;-7.50;100.00
58295;BME280;45705;55.592;37.460;2023-02-28T00:40:34;99582.28;;;-7.53;100.00
58295;BME280;45705;55.592;37.460;2023-02-28T00:43:00;99573.00;;;-7.34;100.00
58295;BME280;45705;55.592;37.460;2023-02-28T00:45:25;99565.44;;;-7.37;100.00
58295;BME280;45705;55.592;37.460;2023-02-28T00:47:51;99571.69;;;-7.68;100.00
58295;BME280;45705;55.592;37.460;2023-02-28T00:50:19;99564.50;;;-7.44;100.00
58295;BME280;45705;55.592;37.460;2023-02-28T00:52:45;99565.31;;;-7.59;100.00
58295;BME280;45705;55.592;37.460;2023-02-28T00:55:13;99564.50;;;-7.97;100.00
58295;BME280;45705;55.592;37.460;2023-02-28T00:57:39;99564.13;;;-7.71;100.00
58295;BME280;45705;55.592;37.460;2023-02-28T01:00:06;99548.69;;;-8.20;100.00
58295;BME280;45705;55.592;37.460;2023-02-28T01:02:32;99548.84;;;-7.99;100.00
58295;BME280;45705;55.592;37.460;2023-02-28T01:04:58;99544.31;;;-7.52;100.00
58295;BME280;45705;55.592;37.460;2023-02-28T01:07:24;99546.50;;;-7.56;100.00
58295;BME280;45705;55.592;37.460;2023-02-28T01:09:50;99551.91;;;-7.72;100.00
58295;BME280;45705;55.592;37.460;2023-02-28T01:12:16;99537.53;;;-7.84;100.00
58295;BME280;45705;55.592;37.460;2023-02-28T01:14:42;99545.91;;;-7.66;100.00
58295;BME280;45705;55.592;37.460;2023-02-28T01:17:08;99538.91;;;-7.59;100.00
58295;BME280;45705;55.592;37.460;2023-02-28T01:19:34;99533.41;;;-8.02;100.00
58295;BME280;45705;55.592;37.460;2023-02-28T01:22:03;99519.78;;;-7.90;100.00
58295;BME280;45705;55.592;37.460;2023-02-28T01:24:29;99528.34;;;-7.74;100.00
58295;BME280;45705;55.592;37.460;2023-02-28T01:26:55;99512.22;;;-7.94;100.00
58295;BME280;45705;55.592;37.460;2023-02-28T01:29:21;99521.94;;;-7.94;100.00
58295;BME280;45705;55.592;37.460;2023-02-28T01:31:46;99501.84;;;-7.80;100.00
58295;BME280;45705;55.592;37.460;2023-02-28T01:34:12;99512.22;;;-7.64;100.00
58295;BME280;45705;55.592;37.460;2023-02-28T01:36:38;99504.19;;;-7.85;100.00
58295;BME280;45705;55.592;37.460;2023-02-28T01:39:04;99494.75;;;-7.80;100.00
58295;BME280;45705;55.592;37.460;2023-02-28T01:41:32;99495.31;;;-7.55;100.00
58295;BME280;45705;55.592;37.460;2023-02-28T01:44:06;99485.56;;;-7.84;100.00
58295;BME280;45705;55.592;37.460;2023-02-28T01:46:34;99483.09;;;-7.85;100.00
58295;BME280;45705;55.592;37.460;2023-02-28T01:51:40;99479.94;;;-7.81;100.00
58295;BME280;45705;55.592;37.460;2023-02-28T01:54:14;99460.59;;;-7.81;100.00
58295;BME280;45705;55.592;37.460;2023-02-28T01:56:49;99458.34;;;-7.84;100.00
58295;BME280;45705;55.592;37.460;2023-02-28T01:59:23;99463.97;;;-7.87;100.00
58295;BME280;45705;55.592;37.460;2023-02-28T02:01:52;99457.59;;;-7.48;100.00
58295;BME280;45705;55.592;37.460;2023-02-28T02:04:21;99454.72;;;-7.54;100.00
58295;BME280;45705;55.592;37.460;2023-02-28T02:06:49;99445.59;;;-7.36;100.00
58295;BME280;45705;55.592;37.460;2023-02-28T02:09:15;99450.41;;;-7.40;100.00
58295;BME280;45705;55.592;37.460;2023-02-28T02:11:43;99444.31;;;-7.40;100.00
58295;BME280;45705;55.592;37.460;2023-02-28T02:25:11;99423.28;;;-7.12;100.00
58295;BME280;45705;55.592;37.460;2023-02-28T02:36:25;99409.72;;;-7.45;100.00
58295;BME280;45705;55.592;37.460;2023-02-28T02:39:00;99412.66;;;-7.70;100.00
58295;BME280;45705;55.592;37.460;2023-02-28T02:41:36;99412.16;;;-7.44;100.00
58295;BME280;45705;55.592;37.460;2023-02-28T02:44:12;99410.28;;;-7.65;100.00
58295;BME280;45705;55.592;37.460;2023-02-28T02:46:42;99405.19;;;-7.52;100.00
58295;BME280;45705;55.592;37.460;2023-02-28T02:49:13;99403.16;;;-7.35;100.00
58295;BME280;45705;55.592;37.460;2023-02-28T02:51:41;99408.00;;;-7.17;100.00
58295;BME280;45705;55.592;37.460;2023-02-28T02:56:36;99394.22;;;-7.48;100.00
58295;BME280;45705;55.592;37.460;2023-02-28T02:59:08;99388.34;;;-7.29;100.00
58295;BME280;45705;55.592;37.460;2023-02-28T03:01:37;99386.63;;;-7.37;100.00
58295;BME280;45705;55.592;37.460;2023-02-28T03:04:19;99376.31;;;-7.17;100.00
58295;BME280;45705;55.592;37.460;2023-02-28T03:06:46;99379.78;;;-7.31;100.00
58295;BME280;45705;55.592;37.460;2023-02-28T03:09:12;99360.03;;;-7.35;100.00
58295;BME280;45705;55.592;37.460;2023-02-28T03:11:39;99357.22;;;-7.12;100.00
58295;BME280;45705;55.592;37.460;2023-02-28T03:20:16;99353.31;;;-7.38;100.00
58295;BME280;45705;55.592;37.460;2023-02-28T03:22:50;99357.84;;;-7.68;100.00
58295;BME280;45705;55.592;37.460;2023-02-28T03:28:39;99348.53;;;-7.49;100.00
58295;BME280;45705;55.592;37.460;2023-02-28T03:33:54;99326.28;;;-7.76;100.00
58295;BME280;45705;55.592;37.460;2023-02-28T03:36:30;99325.06;;;-7.59;100.00
58295;BME280;45705;55.592;37.460;2023-02-28T03:39:04;99325.06;;;-7.59;100.00
58295;BME280;45705;55.592;37.460;2023-02-28T03:41:36;99309.84;;;-7.57;100.00
58295;BME280;45705;55.592;37.460;2023-02-28T03:44:38;99301.41;;;-7.67;100.00
58295;BME280;45705;55.592;37.460;2023-02-28T03:47:12;99299.25;;;-7.78;100.00
58295;BME280;45705;55.592;37.460;2023-02-28T03:49:46;99294.44;;;-7.75;100.00
58295;BME280;45705;55.592;37.460;2023-02-28T03:52:17;99290.97;;;-7.75;100.00
58295;BME280;45705;55.592;37.460;2023-02-28T03:54:48;99286.09;;;-7.57;100.00
58295;BME280;45705;55.592;37.460;2023-02-28T04:02:41;99277.63;;;-7.88;100.00
58295;BME280;45705;55.592;37.460;2023-02-28T04:05:07;99273.63;;;-7.84;100.00
58295;BME280;45705;55.592;37.460;2023-02-28T04:07:33;99259.53;;;-7.70;100.00
58295;BME280;45705;55.592;37.460;2023-02-28T04:09:59;99271.97;;;-7.85;100.00
58295;BME280;45705;55.592;37.460;2023-02-28T04:12:25;99266.16;;;-7.96;100.00
58295;BME280;45705;55.592;37.460;2023-02-28T04:14:51;99256.75;;;-7.83;100.00
58295;BME280;45705;55.592;37.460;2023-02-28T04:17:17;99245.50;;;-7.92;100.00
58295;BME280;45705;55.592;37.460;2023-02-28T04:19:42;99257.34;;;-7.66;100.00
58295;BME280;45705;55.592;37.460;2023-02-28T04:22:09;99244.97;;;-7.66;100.00
58295;BME280;45705;55.592;37.460;2023-02-28T04:24:35;99250.63;;;-7.69;100.00
58295;BME280;45705;55.592;37.460;2023-02-28T04:27:02;99259.63;;;-7.63;100.00
58295;BME280;45705;55.592;37.460;2023-02-28T04:29:30;99246.97;;;-7.68;100.00
58295;BME280;45705;55.592;37.460;2023-02-28T04:31:56;99249.13;;;-7.57;100.00
58295;BME280;45705;55.592;37.460;2023-02-28T04:34:27;99244.72;;;-7.49;100.00
58295;BME280;45705;55.592;37.460;2023-02-28T04:36:55;99246.44;;;-7.63;100.00
58295;BME280;45705;55.592;37.460;2023-02-28T04:39:23;99239.09;;;-7.18;100.00
58295;BME280;45705;55.592;37.460;2023-02-28T04:41:50;99236.66;;;-6.15;94.71
58295;BME280;45705;55.592;37.460;2023-02-28T04:44:16;99224.56;;;-5.69;90.01
58295;BME280;45705;55.592;37.460;2023-02-28T04:46:43;99220.09;;;-4.76;84.34
58295;BME280;45705;55.592;37.460;2023-02-28T04:49:11;99215.81;;;-4.11;78.64
58295;BME280;45705;55.592;37.460;2023-02-28T04:51:37;99210.03;;;-4.02;74.86
58295;BME280;45705;55.592;37.460;2023-02-28T04:54:03;99191.50;;;-3.70;73.16
58295;BME280;45705;55.592;37.460;2023-02-28T04:56:29;99209.03;;;-3.62;71.35
58295;BME280;45705;55.592;37.460;2023-02-28T04:58:55;99201.53;;;-3.72;70.17
58295;BME280;45705;55.592;37.460;2023-02-28T05:03:52;99186.22;;;-3.20;66.72
58295;BME280;45705;55.592;37.460;2023-02-28T05:06:19;99169.69;;;-3.03;65.44
58295;BME280;45705;55.592;37.460;2023-02-28T05:08:46;99159.97;;;-1.75;60.58
58295;BME280;45705;55.592;37.460;2023-02-28T05:11:15;99167.63;;;-1.67;58.65
58295;BME280;45705;55.592;37.460;2023-02-28T05:13:42;99153.81;;;-0.22;53.88
58295;BME280;45705;55.592;37.460;2023-02-28T05:16:07;99164.97;;;0.04;50.39
58295;BME280;45705;55.592;37.460;2023-02-28T05:18:33;99150.09;;;-0.21;51.74
58295;BME280;45705;55.592;37.460;2023-02-28T05:20:59;99152.19;;;0.68;48.92
58295;BME280;45705;55.592;37.460;2023-02-28T05:23:27;99136.03;;;0.29;49.01
58295;BME280;45705;55.592;37.460;2023-02-28T05:25:54;99132.41;;;1.25;46.64
58295;BME280;45705;55.592;37.460;2023-02-28T05:28:20;99123.31;;;1.48;45.49
58295;BME280;45705;55.592;37.460;2023-02-28T05:30:46;99108.00;;;2.20;43.11
58295;BME280;45705;55.592;37.460;2023-02-28T05:33:12;99111.63;;;2.04;42.67
58295;BME280;45705;55.592;37.460;2023-02-28T05:35:39;99089.00;;;2.54;42.03
58295;BME280;45705;55.592;37.460;2023-02-28T05:38:06;99089.72;;;2.17;41.94
58295;BME280;45705;55.592;37.460;2023-02-28T05:40:32;99086.19;;;2.39;41.35
58295;BME280;45705;55.592;37.460;2023-02-28T05:42:58;99076.44;;;2.27;41.42
58295;BME280;45705;55.592;37.460;2023-02-28T05:45:23;99076.41;;;1.95;40.69
58295;BME280;45705;55.592;37.460;2023-02-28T05:47:53;99071.75;;;1.36;43.25
58295;BME280;45705;55.592;37.460;2023-02-28T05:50:19;99077.56;;;1.55;42.35
58295;BME280;45705;55.592;37.460;2023-02-28T05:52:49;99062.59;;;2.41;40.94
58295;BME280;45705;55.592;37.460;2023-02-28T05:55:15;99051.78;;;2.73;39.88
58295;BME280;45705;55.592;37.460;2023-02-28T05:57:41;99052.34;;;2.38;40.40
58295;BME280;45705;55.592;37.460;2023-02-28T06:00:08;99039.38;;;2.62;40.76
58295;BME280;45705;55.592;37.460;2023-02-28T06:02:39;99031.50;;;2.87;39.76
58295;BME280;45705;55.592;37.460;2023-02-28T06:05:13;99040.84;;;0.67;42.74
58295;BME280;45705;55.592;37.460;2023-02-28T06:07:39;99024.28;;;1.58;42.18
58295;BME280;45705;55.592;37.460;2023-02-28T06:10:05;99026.50;;;2.21;40.66
58295;BME280;45705;55.592;37.460;2023-02-28T06:12:30;99023.56;;;2.65;40.35
58295;BME280;45705;55.592;37.460;2023-02-28T06:14:56;99001.44;;;2.43;39.42
58295;BME280;45705;55.592;37.460;2023-02-28T06:17:22;99005.16;;;1.23;42.00
58295;BME280;45705;55.592;37.460;2023-02-28T06:19:47;98992.34;;;1.79;41.34
58295;BME280;45705;55.592;37.460;2023-02-28T06:22:13;98995.88;;;2.60;39.52
58295;BME280;45705;55.592;37.460;2023-02-28T06:24:39;98976.00;;;3.13;38.24
58295;BME280;45705;55.592;37.460;2023-02-28T06:27:05;98978.25;;;2.79;39.29
58295;BME280;45705;55.592;37.460;2023-02-28T06:29:32;98980.03;;;3.16;38.35
58295;BME280;45705;55.592;37.460;2023-02-28T06:31:58;98977.09;;;3.23;37.47
58295;BME280;45705;55.592;37.460;2023-02-28T06:34:24;98983.53;;;1.56;40.23
58295;BME280;45705;55.592;37.460;2023-02-28T06:36:51;98989.81;;;1.67;41.27
58295;BME280;45705;55.592;37.460;2023-02-28T06:39:18;98972.13;;;1.39;40.52
58295;BME280;45705;55.592;37.460;2023-02-28T06:41:43;98967.53;;;1.12;41.38
58295;BME280;45705;55.592;37.460;2023-02-28T06:44:16;98957.88;;;0.62;42.83
58295;BME280;45705;55.592;37.460;2023-02-28T06:46:44;98952.19;;;-0.14;44.07
58295;BME280;45705;55.592;37.460;2023-02-28T06:49:11;98944.13;;;0.36;44.14
58295;BME280;45705;55.592;37.460;2023-02-28T06:51:39;98954.69;;;0.26;44.52
58295;BME280;45705;55.592;37.460;2023-02-28T06:54:05;98948.13;;;-0.51;46.24
58295;BME280;45705;55.592;37.460;2023-02-28T06:56:34;98944.41;;;-0.16;46.75
58295;BME280;45705;55.592;37.460;2023-02-28T06:59:01;98936.00;;;-0.42;46.90
58295;BME280;45705;55.592;37.460;2023-02-28T07:01:27;98926.28;;;-1.22;49.17
58295;BME280;45705;55.592;37.460;2023-02-28T07:03:54;98903.75;;;-1.67;49.73
58295;BME280;45705;55.592;37.460;2023-02-28T07:06:21;98903.28;;;-1.64;52.14
58295;BME280;45705;55.592;37.460;2023-02-28T07:08:51;98897.78;;;-1.98;52.58
58295;BME280;45705;55.592;37.460;2023-02-28T07:11:19;98897.28;;;-1.83;53.95
58295;BME280;45705;55.592;37.460;2023-02-28T07:13:45;98888.34;;;-1.65;53.93
58295;BME280;45705;55.592;37.460;2023-02-28T07:16:13;98886.88;;;-1.96;55.55
58295;BME280;45705;55.592;37.460;2023-02-28T07:18:39;98888.16;;;-1.99;57.04
58295;BME280;45705;55.592;37.460;2023-02-28T07:21:07;98860.38;;;-2.50;59.28
58295;BME280;45705;55.592;37.460;2023-02-28T07:23:34;98876.88;;;-3.13;64.22
58295;BME280;45705;55.592;37.460;2023-02-28T07:25:59;98871.25;;;-2.93;64.37
58295;BME280;45705;55.592;37.460;2023-02-28T07:28:25;98877.94;;;-3.03;65.33
58295;BME280;45705;55.592;37.460;2023-02-28T07:30:51;98854.84;;;-2.90;65.65
58295;BME280;45705;55.592;37.460;2023-02-28T07:33:17;98860.19;;;-3.21;65.62
58295;BME280;45705;55.592;37.460;2023-02-28T07:35:43;98844.41;;;-3.34;66.16
58295;BME280;45705;55.592;37.460;2023-02-28T07:38:09;98851.72;;;-2.87;65.95
58295;BME280;45705;55.592;37.460;2023-02-28T07:40:35;98844.38;;;-3.15;67.36
58295;BME280;45705;55.592;37.460;2023-02-28T07:43:02;98844.09;;;-2.84;66.23
58295;BME280;45705;55.592;37.460;2023-02-28T07:45:29;98838.06;;;-2.91;67.84
58295;BME280;45705;55.592;37.460;2023-02-28T07:47:55;98848.25;;;-2.88;68.16
58295;BME280;45705;55.592;37.460;2023-02-28T07:50:21;98849.19;;;-2.94;68.85
58295;BME280;45705;55.592;37.460;2023-02-28T07:52:47;98833.41;;;-3.07;70.08
58295;BME280;45705;55.592;37.460;2023-02-28T07:55:13;98819.09;;;-3.06;69.52
58295;BME280;45705;55.592;37.460;2023-02-28T07:57:40;98826.75;;;-2.98;70.54
58295;BME280;45705;55.592;37.460;2023-02-28T08:00:08;98822.53;;;-2.40;68.83
58295;BME280;45705;55.592;37.460;2023-02-28T08:02:40;98808.97;;;-2.15;67.05
58295;BME280;45705;55.592;37.460;2023-02-28T08:05:06;98832.47;;;-2.35;66.93
58295;BME280;45705;55.592;37.460;2023-02-28T08:07:32;98804.91;;;-2.41;67.52
58295;BME280;45705;55.592;37.460;2023-02-28T08:09:58;98800.50;;;-2.12;66.83
58295;BME280;45705;55.592;37.460;2023-02-28T08:12:25;98801.69;;;-1.79;66.35
58295;BME280;45705;55.592;37.460;2023-02-28T08:14:51;98791.72;;;-1.72;65.00
58295;BME280;45705;55.592;37.460;2023-02-28T08:17:16;98789.00;;;-2.01;65.87
58295;BME280;45705;55.592;37.460;2023-02-28T08:19:45;98778.78;;;-1.80;65.33
58295;BME280;45705;55.592;37.460;2023-02-28T08:22:11;98764.56;;;-1.69;66.26
58295;BME280;45705;55.592;37.460;2023-02-28T08:24:37;98773.63;;;-1.70;65.95
58295;BME280;45705;55.592;37.460;2023-02-28T08:27:03;98762.88;;;-1.75;66.27
58295;BME280;45705;55.592;37.460;2023-02-28T08:29:28;98770.00;;;-1.35;64.86
58295;BME280;45705;55.592;37.460;2023-02-28T08:31:55;98758.66;;;-1.42;65.64
58295;BME280;45705;55.592;37.460;2023-02-28T08:34:21;98766.66;;;-1.71;67.33
58295;BME280;45705;55.592;37.460;2023-02-28T08:36:47;98750.22;;;-1.68;67.78
58295;BME280;45705;55.592;37.460;2023-02-28T08:39:12;98749.25;;;-1.90;66.58
58295;BME280;45705;55.592;37.460;2023-02-28T08:41:38;98738.00;;;-1.92;68.81
58295;BME280;45705;55.592;37.460;2023-02-28T08:44:04;98729.47;;;-1.66;68.58
58295;BME280;45705;55.592;37.460;2023-02-28T08:46:30;98703.81;;;-1.38;67.48
58295;BME280;45705;55.592;37.460;2023-02-28T08:48:56;98709.25;;;-1.16;67.15
58295;BME280;45705;55.592;37.460;2023-02-28T08:51:25;98703.09;;;-1.16;67.66
58295;BME280;45705;55.592;37.460;2023-02-28T08:53:53;98686.97;;;-0.71;64.74
58295;BME280;45705;55.592;37.460;2023-02-28T08:56:19;98721.19;;;-0.68;65.49
58295;BME280;45705;55.592;37.460;2023-02-28T08:58:46;98754.81;;;-1.34;68.52
58295;BME280;45705;55.592;37.460;2023-02-28T09:01:18;98769.34;;;-1.42;69.69
58295;BME280;45705;55.592;37.460;2023-02-28T09:03:44;98769.19;;;-1.35;70.38
58295;BME280;45705;55.592;37.460;2023-02-28T09:06:11;98769.34;;;-1.42;72.12
58295;BME280;45705;55.592;37.460;2023-02-28T09:08:38;98766.44;;;-1.41;72.32
58295;BME280;45705;55.592;37.460;2023-02-28T09:11:05;98764.66;;;-1.35;72.21
58295;BME280;45705;55.592;37.460;2023-02-28T09:13:31;98748.03;;;-1.25;72.04
58295;BME280;45705;55.592;37.460;2023-02-28T09:15:58;98736.66;;;-1.49;73.88
58295;BME280;45705;55.592;37.460;2023-02-28T09:18:25;98745.56;;;-1.61;74.20
58295;BME280;45705;55.592;37.460;2023-02-28T09:20:52;98728.44;;;-1.65;74.72
58295;BME280;45705;55.592;37.460;2023-02-28T09:23:18;98719.34;;;-1.35;74.41
58295;BME280;45705;55.592;37.460;2023-02-28T09:25:52;98712.78;;;-2.02;77.84
58295;BME280;45705;55.592;37.460;2023-02-28T09:28:19;98712.03;;;-1.85;78.44
58295;BME280;45705;55.592;37.460;2023-02-28T09:30:48;98704.00;;;-1.73;78.93
58295;BME280;45705;55.592;37.460;2023-02-28T09:33:15;98701.47;;;-2.09;81.16
58295;BME280;45705;55.592;37.460;2023-02-28T09:35:41;98702.28;;;-2.08;82.56
58295;BME280;45705;55.592;37.460;2023-02-28T09:38:09;98694.31;;;-2.20;83.39
58295;BME280;45705;55.592;37.460;2023-02-28T09:40:49;98660.69;;;-1.98;82.32
58295;BME280;45705;55.592;37.460;2023-02-28T09:43:16;98693.78;;;-1.93;83.22
58295;BME280;45705;55.592;37.460;2023-02-28T09:45:50;98710.09;;;-1.90;83.95
58295;BME280;45705;55.592;37.460;2023-02-28T09:48:25;98711.19;;;-1.74;81.96
58295;BME280;45705;55.592;37.460;2023-02-28T09:51:00;98704.53;;;-2.17;82.86
58295;BME280;45705;55.592;37.460;2023-02-28T09:53:30;98703.75;;;-2.01;83.51
58295;BME280;45705;55.592;37.460;2023-02-28T09:56:04;98694.31;;;-2.20;84.41
58295;BME280;45705;55.592;37.460;2023-02-28T09:58:42;98695.81;;;-2.12;84.20
58295;BME280;45705;55.592;37.460;2023-02-28T10:01:25;98682.53;;;-2.24;84.88
58295;BME280;45705;55.592;37.460;2023-02-28T10:06:36;98671.88;;;-1.50;81.44
58295;BME280;45705;55.592;37.460;2023-02-28T10:09:13;98681.69;;;-1.84;82.23
58295;BME280;45705;55.592;37.460;2023-02-28T10:11:39;98664.88;;;-1.85;81.97
58295;BME280;45705;55.592;37.460;2023-02-28T10:14:17;98667.25;;;-2.17;83.56
58295;BME280;45705;55.592;37.460;2023-02-28T10:16:47;98645.34;;;-1.90;83.85
58295;BME280;45705;55.592;37.460;2023-02-28T10:21:55;98644.88;;;-1.87;83.00
58295;BME280;45705;55.592;37.460;2023-02-28T10:24:32;98655.25;;;-2.03;84.18
58295;BME280;45705;55.592;37.460;2023-02-28T10:27:10;98635.31;;;-2.00;83.73
58295;BME280;45705;55.592;37.460;2023-02-28T10:29:40;98628.22;;;-1.94;83.41
58295;BME280;45705;55.592;37.460;2023-02-28T10:32:11;98614.31;;;-1.96;84.53
58295;BME280;45705;55.592;37.460;2023-02-28T10:34:42;98613.84;;;-1.93;84.42
58295;BME280;45705;55.592;37.460;2023-02-28T10:37:09;98608.25;;;-2.38;86.24
58295;BME280;45705;55.592;37.460;2023-02-28T10:39:44;98601.88;;;-2.37;87.53
58295;BME280;45705;55.592;37.460;2023-02-28T10:42:26;98603.34;;;-2.00;86.01
58295;BME280;45705;55.592;37.460;2023-02-28T10:45:05;98601.22;;;-2.15;86.58
58295;BME280;45705;55.592;37.460;2023-02-28T10:47:33;98599.31;;;-2.03;87.16
58295;BME280;45705;55.592;37.460;2023-02-28T10:50:00;98604.66;;;-1.69;86.00
58295;BME280;45705;55.592;37.460;2023-02-28T10:52:37;98589.25;;;-1.84;85.38
58295;BME280;45705;55.592;37.460;2023-02-28T10:55:24;98586.84;;;-1.68;84.71
58295;BME280;45705;55.592;37.460;2023-02-28T10:57:53;98589.97;;;-1.71;85.28
58295;BME280;45705;55.592;37.460;2023-02-28T11:00:22;98598.16;;;-2.07;87.79
58295;BME280;45705;55.592;37.460;2023-02-28T11:02:48;98585.41;;;-2.05;89.16
58295;BME280;45705;55.592;37.460;2023-02-28T11:05:31;98575.22;;;-2.08;89.18
58295;BME280;45705;55.592;37.460;2023-02-28T11:08:14;98573.03;;;-1.82;89.43
58295;BME280;45705;55.592;37.460;2023-02-28T11:10:45;98583.09;;;-2.01;89.90
58295;BME280;45705;55.592;37.460;2023-02-28T11:13:19;98575.59;;;-1.87;89.37
58295;BME280;45705;55.592;37.460;2023-02-28T11:15:52;98571.38;;;-2.00;90.55
58295;BME280;45705;55.592;37.460;2023-02-28T11:18:54;98564.59;;;-2.08;91.61
58295;BME280;45705;55.592;37.460;2023-02-28T11:21:25;98566.69;;;-2.10;92.90
58295;BME280;45705;55.592;37.460;2023-02-28T11:23:59;98562.47;;;-2.23;93.34
58295;BME280;45705;55.592;37.460;2023-02-28T11:26:38;98562.34;;;-1.99;93.20
58295;BME280;45705;55.592;37.460;2023-02-28T11:29:16;98555.06;;;-2.04;94.07
58295;BME280;45705;55.592;37.460;2023-02-28T11:34:39;98542.13;;;-2.12;94.40
58295;BME280;45705;55.592;37.460;2023-02-28T11:37:12;98537.28;;;-2.32;95.13
58295;BME280;45705;55.592;37.460;2023-02-28T11:39:38;98529.06;;;-2.30;96.04
58295;BME280;45705;55.592;37.460;2023-02-28T11:42:10;98536.66;;;-1.88;95.23
58295;BME280;45705;55.592;37.460;2023-02-28T11:53:00;98546.19;;;-1.75;95.41
58295;BME280;45705;55.592;37.460;2023-02-28T11:55:42;98550.69;;;-2.10;97.51
58295;BME280;45705;55.592;37.460;2023-02-28T12:14:44;98507.34;;;-2.22;100.00
58295;BME280;45705;55.592;37.460;2023-02-28T12:20:28;98509.16;;;-2.11;100.00
58295;BME280;45705;55.592;37.460;2023-02-28T12:26:11;98504.53;;;-2.15;100.00
58295;BME280;45705;55.592;37.460;2023-02-28T12:28:46;98509.31;;;-2.46;100.00
58295;BME280;45705;55.592;37.460;2023-02-28T12:33:52;98511.28;;;-2.42;100.00
58295;BME280;45705;55.592;37.460;2023-02-28T12:36:20;98499.75;;;-2.13;100.00
58295;BME280;45705;55.592;37.460;2023-02-28T12:39:23;98502.28;;;-2.07;100.00
58295;BME280;45705;55.592;37.460;2023-02-28T12:41:55;98484.34;;;-2.28;100.00
58295;BME280;45705;55.592;37.460;2023-02-28T12:47:13;98485.66;;;-1.97;100.00
58295;BME280;45705;55.592;37.460;2023-02-28T12:49:45;98464.34;;;-1.97;100.00
58295;BME280;45705;55.592;37.460;2023-02-28T12:52:13;98474.34;;;-1.70;100.00
58295;BME280;45705;55.592;37.460;2023-02-28T12:54:54;98467.06;;;-1.75;100.00
58295;BME280;45705;55.592;37.460;2023-02-28T12:57:31;98457.47;;;-1.93;100.00
58295;BME280;45705;55.592;37.460;2023-02-28T13:00:19;98454.66;;;-2.20;100.00
58295;BME280;45705;55.592;37.460;2023-02-28T13:10:53;98438.38;;;-2.07;100.00
58295;BME280;45705;55.592;37.460;2023-02-28T13:13:27;98412.59;;;-2.01;100.00
58295;BME280;45705;55.592;37.460;2023-02-28T13:18:35;98419.81;;;-2.35;100.00
58295;BME280;45705;55.592;37.460;2023-02-28T13:21:10;98417.69;;;-2.00;100.00
58295;BME280;45705;55.592;37.460;2023-02-28T13:26:30;98413.19;;;-2.50;100.00
58295;BME280;45705;55.592;37.460;2023-02-28T13:39:58;98411.75;;;-1.85;100.00
58295;BME280;45705;55.592;37.460;2023-02-28T13:50:36;98400.78;;;-1.88;100.00
58295;BME280;45705;55.592;37.460;2023-02-28T14:06:29;98367.00;;;-2.05;100.00
58295;BME280;45705;55.592;37.460;2023-02-28T14:09:05;98379.13;;;-2.14;100.00
58295;BME280;45705;55.592;37.460;2023-02-28T14:11:37;98372.44;;;-1.77;100.00
58295;BME280;45705;55.592;37.460;2023-02-28T14:14:04;98375.59;;;-1.59;100.00
58295;BME280;45705;55.592;37.460;2023-02-28T14:16:40;98366.34;;;-1.95;100.00
58295;BME280;45705;55.592;37.460;2023-02-28T14:19:15;98354.72;;;-2.06;100.00
58295;BME280;45705;55.592;37.460;2023-02-28T14:22:38;98376.22;;;-1.73;100.00
58295;BME280;45705;55.592;37.460;2023-02-28T14:34:17;98360.97;;;-1.78;100.00
58295;BME280;45705;55.592;37.460;2023-02-28T14:36:48;98360.09;;;-1.62;100.00
58295;BME280;45705;55.592;37.460;2023-02-28T14:39:24;98351.66;;;-1.53;100.00
58295;BME280;45705;55.592;37.460;2023-02-28T14:41:50;98348.53;;;-1.72;100.00
58295;BME280;45705;55.592;37.460;2023-02-28T14:46:49;98326.53;;;-1.63;100.00
58295;BME280;45705;55.592;37.460;2023-02-28T14:49:28;98335.78;;;-1.43;100.00
58295;BME280;45705;55.592;37.460;2023-02-28T14:52:22;98332.50;;;-1.50;100.00
58295;BME280;45705;55.592;37.460;2023-02-28T14:55:00;98336.78;;;-1.49;100.00
58295;BME280;45705;55.592;37.460;2023-02-28T14:57:34;98332.75;;;-1.30;100.00
58295;BME280;45705;55.592;37.460;2023-02-28T15:02:46;98319.63;;;-1.59;100.00
58295;BME280;45705;55.592;37.460;2023-02-28T15:07:38;98327.25;;;-1.45;100.00
58295;BME280;45705;55.592;37.460;2023-02-28T15:12:37;98309.84;;;-1.26;100.00
58295;BME280;45705;55.592;37.460;2023-02-28T15:15:03;98312.59;;;-1.43;100.00
58295;BME280;45705;55.592;37.460;2023-02-28T15:17:30;98310.72;;;-1.42;100.00
58295;BME280;45705;55.592;37.460;2023-02-28T15:19:56;98300.78;;;-1.25;100.00
58295;BME280;45705;55.592;37.460;2023-02-28T15:22:30;98304.38;;;-1.36;100.00
58295;BME280;45705;55.592;37.460;2023-02-28T15:24:58;98299.06;;;-1.36;100.00
58295;BME280;45705;55.592;37.460;2023-02-28T15:27:27;98299.38;;;-1.32;100.00
58295;BME280;45705;55.592;37.460;2023-02-28T15:29:56;98312.53;;;-1.21;100.00
58295;BME280;45705;55.592;37.460;2023-02-28T15:32:27;98300.66;;;-1.08;100.00